sensor_id;sensor_type;location;lat;lon;timestamp;pressure;altitude;pressure_sealevel;temperature;humidity
73422;BME280;61637;47.760;-122.022;2023-12-28T00:00:01;101253.06099999999;;;7.8;92.0
73422;BME280;61637;47.760;-122.022;2023-12-28T00:02:01;101253.06099999999;;;7.8;92.0
73422;BME280;61637;47.760;-122.022;2023-12-28T00:04:01;101253.06099999999;;;7.7;92.0
73422;BME280;61637;47.760;-122.022;2023-12-28T00:06:00;101253.06099999999;;;7.7;92.0
73422;BME280;61637;47.760;-122.022;2023-12-28T00:08:01;101253.06099999999;;;7.7;93.0
73422;BME280;61637;47.760;-122.022;2023-12-28T00:10:01;101253.06099999999;;;7.7;93.0
73422;BME280;61637;47.760;-122.022;2023-12-28T00:12:01;101253.06099999999;;;7.6;93.0
73422;BME280;61637;47.760;-122.022;2023-12-28T00:14:01;101253.06099999999;;;7.6;93.0
73422;BME280;61637;47.760;-122.022;2023-12-28T00:16:01;101253.06099999999;;;7.6;93.0
73422;BME280;61637;47.760;-122.022;2023-12-28T00:18:00;101253.06099999999;;;7.5;93.0
73422;BME280;61637;47.760;-122.022;2023-12-28T00:20:00;101253.06099999999;;;7.4;94.0
73422;BME280;61637;47.760;-122.022;2023-12-28T00:22:00;101253.06099999999;;;7.4;94.0
73422;BME280;61637;47.760;-122.022;2023-12-28T00:24:01;101253.06099999999;;;7.4;94.0
73422;BME280;61637;47.760;-122.022;2023-12-28T00:26:00;101253.06099999999;;;7.4;94.0
73422;BME280;61637;47.760;-122.022;2023-12-28T00:28:01;101253.06099999999;;;7.4;94.0
73422;BME280;61637;47.760;-122.022;2023-12-28T00:30:01;101253.06099999999;;;7.4;94.0
73422;BME280;61637;47.760;-122.022;2023-12-28T00:32:00;101253.06099999999;;;7.4;94.0
73422;BME280;61637;47.760;-122.022;2023-12-28T00:34:00;101253.06099999999;;;7.4;94.0
73422;BME280;61637;47.760;-122.022;2023-12-28T00:36:01;101253.06099999999;;;7.3;95.0
73422;BME280;61637;47.760;-122.022;2023-12-28T00:38:01;101253.06099999999;;;7.3;95.0
73422;BME280;61637;47.760;-122.022;2023-12-28T00:40:01;101253.06099999999;;;7.3;95.0
73422;BME280;61637;47.760;-122.022;2023-12-28T00:42:01;101253.06099999999;;;7.3;95.0
73422;BME280;61637;47.760;-122.022;2023-12-28T00:44:00;101253.06099999999;;;7.3;95.0
73422;BME280;61637;47.760;-122.022;2023-12-28T00:46:01;101253.06099999999;;;7.3;94.0
73422;BME280;61637;47.760;-122.022;2023-12-28T00:48:00;101253.06099999999;;;7.3;94.0
73422;BME280;61637;47.760;-122.022;2023-12-28T00:50:01;101253.06099999999;;;7.3;94.0
73422;BME280;61637;47.760;-122.022;2023-12-28T00:52:01;101253.06099999999;;;7.4;95.0
73422;BME280;61637;47.760;-122.022;2023-12-28T00:54:00;101253.06099999999;;;7.3;95.0
73422;BME280;61637;47.760;-122.022;2023-12-28T00:56:01;101253.06099999999;;;7.3;95.0
73422;BME280;61637;47.760;-122.022;2023-12-28T00:58:00;101253.06099999999;;;7.3;95.0
73422;BME280;61637;47.760;-122.022;2023-12-28T01:00:01;101253.06099999999;;;7.3;95.0
73422;BME280;61637;47.760;-122.022;2023-12-28T01:02:00;101253.06099999999;;;7.3;95.0
73422;BME280;61637;47.760;-122.022;2023-12-28T01:04:01;101253.06099999999;;;7.3;95.0
73422;BME280;61637;47.760;-122.022;2023-12-28T01:06:00;101253.06099999999;;;7.3;95.0
73422;BME280;61637;47.760;-122.022;2023-12-28T01:08:01;101253.06099999999;;;7.3;95.0
73422;BME280;61637;47.760;-122.022;2023-12-28T01:10:01;101253.06099999999;;;7.3;95.0
73422;BME280;61637;47.760;-122.022;2023-12-28T01:12:01;101253.06099999999;;;7.3;95.0
73422;BME280;61637;47.760;-122.022;2023-12-28T01:14:01;101253.06099999999;;;7.3;95.0
73422;BME280;61637;47.760;-122.022;2023-12-28T01:16:01;101253.06099999999;;;7.2;95.0
73422;BME280;61637;47.760;-122.022;2023-12-28T01:18:00;101253.06099999999;;;7.2;95.0
73422;BME280;61637;47.760;-122.022;2023-12-28T01:20:00;101253.06099999999;;;7.2;96.0
73422;BME280;61637;47.760;-122.022;2023-12-28T01:22:00;101253.06099999999;;;7.2;96.0
73422;BME280;61637;47.760;-122.022;2023-12-28T01:24:01;101253.06099999999;;;7.2;96.0
73422;BME280;61637;47.760;-122.022;2023-12-28T01:26:01;101253.06099999999;;;7.2;96.0
73422;BME280;61637;47.760;-122.022;2023-12-28T01:28:01;101253.06099999999;;;7.2;96.0
73422;BME280;61637;47.760;-122.022;2023-12-28T01:30:00;101253.06099999999;;;7.2;96.0
73422;BME280;61637;47.760;-122.022;2023-12-28T01:32:02;101253.06099999999;;;7.2;96.0
73422;BME280;61637;47.760;-122.022;2023-12-28T01:34:01;101253.06099999999;;;7.1;96.0
73422;BME280;61637;47.760;-122.022;2023-12-28T01:36:01;101253.06099999999;;;7.1;96.0
73422;BME280;61637;47.760;-122.022;2023-12-28T01:38:01;101253.06099999999;;;7.1;96.0
73422;BME280;61637;47.760;-122.022;2023-12-28T01:40:01;101253.06099999999;;;7.1;96.0
73422;BME280;61637;47.760;-122.022;2023-12-28T01:42:01;101253.06099999999;;;7.1;96.0
73422;BME280;61637;47.760;-122.022;2023-12-28T01:44:01;101253.06099999999;;;7.1;96.0
73422;BME280;61637;47.760;-122.022;2023-12-28T01:46:01;101253.06099999999;;;7.1;96.0
73422;BME280;61637;47.760;-122.022;2023-12-28T01:48:00;101253.06099999999;;;7.1;96.0
73422;BME280;61637;47.760;-122.022;2023-12-28T01:50:01;101253.06099999999;;;7.1;96.0
73422;BME280;61637;47.760;-122.022;2023-12-28T01:52:01;101253.06099999999;;;7.1;96.0
73422;BME280;61637;47.760;-122.022;2023-12-28T01:54:00;101253.06099999999;;;7.1;96.0
73422;BME280;61637;47.760;-122.022;2023-12-28T01:56:00;101253.06099999999;;;7.0;96.0
73422;BME280;61637;47.760;-122.022;2023-12-28T01:58:01;101253.06099999999;;;7.0;96.0
73422;BME280;61637;47.760;-122.022;2023-12-28T02:00:01;101253.06099999999;;;7.0;96.0
73422;BME280;61637;47.760;-122.022;2023-12-28T02:02:01;101253.06099999999;;;6.9;96.0
73422;BME280;61637;47.760;-122.022;2023-12-28T02:04:01;101253.06099999999;;;6.9;96.0
73422;BME280;61637;47.760;-122.022;2023-12-28T02:06:00;101253.06099999999;;;6.9;96.0
73422;BME280;61637;47.760;-122.022;2023-12-28T02:08:01;101253.06099999999;;;6.9;96.0
73422;BME280;61637;47.760;-122.022;2023-12-28T02:10:01;101253.06099999999;;;6.9;96.0
73422;BME280;61637;47.760;-122.022;2023-12-28T02:12:01;101253.06099999999;;;6.9;96.0
73422;BME280;61637;47.760;-122.022;2023-12-28T02:14:01;101253.06099999999;;;6.9;96.0
73422;BME280;61637;47.760;-122.022;2023-12-28T02:16:01;101253.06099999999;;;6.9;96.0
73422;BME280;61637;47.760;-122.022;2023-12-28T02:18:01;101253.06099999999;;;6.8;96.0
73422;BME280;61637;47.760;-122.022;2023-12-28T02:20:00;101253.06099999999;;;6.8;96.0
73422;BME280;61637;47.760;-122.022;2023-12-28T02:22:01;101253.06099999999;;;6.8;96.0
73422;BME280;61637;47.760;-122.022;2023-12-28T02:24:01;101253.06099999999;;;6.8;96.0
73422;BME280;61637;47.760;-122.022;2023-12-28T02:26:01;101253.06099999999;;;6.8;96.0
73422;BME280;61637;47.760;-122.022;2023-12-28T02:28:01;101253.06099999999;;;6.8;96.0
73422;BME280;61637;47.760;-122.022;2023-12-28T02:30:01;101253.06099999999;;;6.8;96.0
73422;BME280;61637;47.760;-122.022;2023-12-28T02:32:01;101253.06099999999;;;6.8;96.0
73422;BME280;61637;47.760;-122.022;2023-12-28T02:34:02;101253.06099999999;;;6.7;96.0
73422;BME280;61637;47.760;-122.022;2023-12-28T02:36:02;101253.06099999999;;;6.7;96.0
73422;BME280;61637;47.760;-122.022;2023-12-28T02:38:02;101253.06099999999;;;6.7;96.0
73422;BME280;61637;47.760;-122.022;2023-12-28T02:40:01;101253.06099999999;;;6.6;96.0
73422;BME280;61637;47.760;-122.022;2023-12-28T02:42:00;101253.06099999999;;;6.6;96.0
73422;BME280;61637;47.760;-122.022;2023-12-28T02:44:00;101253.06099999999;;;6.6;96.0
73422;BME280;61637;47.760;-122.022;2023-12-28T02:46:00;101253.06099999999;;;6.6;96.0
73422;BME280;61637;47.760;-122.022;2023-12-28T02:48:01;101253.06099999999;;;6.6;96.0
73422;BME280;61637;47.760;-122.022;2023-12-28T02:50:01;101253.06099999999;;;6.6;96.0
73422;BME280;61637;47.760;-122.022;2023-12-28T02:52:01;101253.06099999999;;;6.6;96.0
73422;BME280;61637;47.760;-122.022;2023-12-28T02:54:00;101253.06099999999;;;6.5;96.0
73422;BME280;61637;47.760;-122.022;2023-12-28T02:56:01;101253.06099999999;;;6.4;96.0
73422;BME280;61637;47.760;-122.022;2023-12-28T02:58:01;101253.06099999999;;;6.4;96.0
73422;BME280;61637;47.760;-122.022;2023-12-28T03:00:01;101253.06099999999;;;6.4;96.0
73422;BME280;61637;47.760;-122.022;2023-12-28T03:02:01;101253.06099999999;;;6.4;97.0
73422;BME280;61637;47.760;-122.022;2023-12-28T03:04:01;101253.06099999999;;;6.5;97.0
73422;BME280;61637;47.760;-122.022;2023-12-28T03:06:00;101253.06099999999;;;6.5;97.0
73422;BME280;61637;47.760;-122.022;2023-12-28T03:08:00;101253.06099999999;;;6.5;97.0
73422;BME280;61637;47.760;-122.022;2023-12-28T03:10:01;101253.06099999999;;;6.6;97.0
73422;BME280;61637;47.760;-122.022;2023-12-28T03:12:01;101253.06099999999;;;6.6;97.0
73422;BME280;61637;47.760;-122.022;2023-12-28T03:14:01;101253.06099999999;;;6.6;97.0
73422;BME280;61637;47.760;-122.022;2023-12-28T03:16:01;101253.06099999999;;;6.6;97.0
73422;BME280;61637;47.760;-122.022;2023-12-28T03:18:00;101253.06099999999;;;6.6;97.0
73422;BME280;61637;47.760;-122.022;2023-12-28T03:20:01;101253.06099999999;;;6.7;97.0
73422;BME280;61637;47.760;-122.022;2023-12-28T03:22:00;101253.06099999999;;;6.7;96.0
73422;BME280;61637;47.760;-122.022;2023-12-28T03:24:00;101253.06099999999;;;6.7;96.0
73422;BME280;61637;47.760;-122.022;2023-12-28T03:26:01;101253.06099999999;;;6.7;96.0
73422;BME280;61637;47.760;-122.022;2023-12-28T03:28:01;101253.06099999999;;;6.8;96.0
73422;BME280;61637;47.760;-122.022;2023-12-28T03:30:00;101253.06099999999;;;6.8;96.0
73422;BME280;61637;47.760;-122.022;2023-12-28T03:32:01;101253.06099999999;;;6.8;96.0
73422;BME280;61637;47.760;-122.022;2023-12-28T03:34:01;101253.06099999999;;;6.7;96.0
73422;BME280;61637;47.760;-122.022;2023-12-28T03:36:00;101253.06099999999;;;6.7;96.0
73422;BME280;61637;47.760;-122.022;2023-12-28T03:38:02;101253.06099999999;;;6.7;96.0
73422;BME280;61637;47.760;-122.022;2023-12-28T03:40:01;101253.06099999999;;;6.7;96.0
73422;BME280;61637;47.760;-122.022;2023-12-28T03:42:01;101253.06099999999;;;6.7;96.0
73422;BME280;61637;47.760;-122.022;2023-12-28T03:44:00;101253.06099999999;;;6.7;96.0
73422;BME280;61637;47.760;-122.022;2023-12-28T03:46:00;101253.06099999999;;;6.7;96.0
73422;BME280;61637;47.760;-122.022;2023-12-28T03:48:01;101253.06099999999;;;6.6;96.0
73422;BME280;61637;47.760;-122.022;2023-12-28T03:50:01;101253.06099999999;;;6.6;96.0
73422;BME280;61637;47.760;-122.022;2023-12-28T03:52:01;101253.06099999999;;;6.6;96.0
73422;BME280;61637;47.760;-122.022;2023-12-28T03:54:00;101253.06099999999;;;6.6;96.0
73422;BME280;61637;47.760;-122.022;2023-12-28T03:56:00;101253.06099999999;;;6.7;96.0
73422;BME280;61637;47.760;-122.022;2023-12-28T03:58:00;101253.06099999999;;;6.7;95.0
73422;BME280;61637;47.760;-122.022;2023-12-28T04:00:01;101253.06099999999;;;6.8;95.0
73422;BME280;61637;47.760;-122.022;2023-12-28T04:02:01;101253.06099999999;;;6.8;95.0
73422;BME280;61637;47.760;-122.022;2023-12-28T04:04:01;101253.06099999999;;;6.8;95.0
73422;BME280;61637;47.760;-122.022;2023-12-28T04:06:00;101253.06099999999;;;6.8;95.0
73422;BME280;61637;47.760;-122.022;2023-12-28T04:08:00;101253.06099999999;;;6.8;95.0
73422;BME280;61637;47.760;-122.022;2023-12-28T04:10:01;101253.06099999999;;;6.8;95.0
73422;BME280;61637;47.760;-122.022;2023-12-28T04:12:01;101253.06099999999;;;6.8;94.0
73422;BME280;61637;47.760;-122.022;2023-12-28T04:14:01;101253.06099999999;;;6.8;95.0
73422;BME280;61637;47.760;-122.022;2023-12-28T04:16:01;101253.06099999999;;;6.8;94.0
73422;BME280;61637;47.760;-122.022;2023-12-28T04:18:01;101253.06099999999;;;6.8;95.0
73422;BME280;61637;47.760;-122.022;2023-12-28T04:20:01;101253.06099999999;;;6.8;94.0
73422;BME280;61637;47.760;-122.022;2023-12-28T04:22:01;101253.06099999999;;;6.8;94.0
73422;BME280;61637;47.760;-122.022;2023-12-28T04:24:01;101253.06099999999;;;6.8;94.0
73422;BME280;61637;47.760;-122.022;2023-12-28T04:26:01;101253.06099999999;;;6.8;93.0
73422;BME280;61637;47.760;-122.022;2023-12-28T04:28:01;101253.06099999999;;;6.9;92.0
73422;BME280;61637;47.760;-122.022;2023-12-28T04:30:01;101253.06099999999;;;7.1;92.0
73422;BME280;61637;47.760;-122.022;2023-12-28T04:32:01;101253.06099999999;;;7.1;91.0
73422;BME280;61637;47.760;-122.022;2023-12-28T04:34:00;101253.06099999999;;;7.1;92.0
73422;BME280;61637;47.760;-122.022;2023-12-28T04:36:01;101253.06099999999;;;7.1;91.0
73422;BME280;61637;47.760;-122.022;2023-12-28T04:38:01;101253.06099999999;;;7.2;91.0
73422;BME280;61637;47.760;-122.022;2023-12-28T04:40:01;101253.06099999999;;;7.1;93.0
73422;BME280;61637;47.760;-122.022;2023-12-28T04:42:00;101253.06099999999;;;7.1;91.0
73422;BME280;61637;47.760;-122.022;2023-12-28T04:44:00;101253.06099999999;;;7.1;91.0
73422;BME280;61637;47.760;-122.022;2023-12-28T04:46:02;101253.06099999999;;;7.2;91.0
73422;BME280;61637;47.760;-122.022;2023-12-28T04:48:01;101253.06099999999;;;7.2;92.0
73422;BME280;61637;47.760;-122.022;2023-12-28T04:50:01;101253.06099999999;;;7.3;89.0
73422;BME280;61637;47.760;-122.022;2023-12-28T04:52:01;101253.06099999999;;;7.3;90.0
73422;BME280;61637;47.760;-122.022;2023-12-28T04:54:00;101253.06099999999;;;7.3;91.0
73422;BME280;61637;47.760;-122.022;2023-12-28T04:56:00;101253.06099999999;;;7.3;91.0
73422;BME280;61637;47.760;-122.022;2023-12-28T04:58:00;101253.06099999999;;;7.2;90.0
73422;BME280;61637;47.760;-122.022;2023-12-28T05:00:01;101253.06099999999;;;7.2;91.0
73422;BME280;61637;47.760;-122.022;2023-12-28T05:02:01;101253.06099999999;;;7.2;90.0
73422;BME280;61637;47.760;-122.022;2023-12-28T05:04:01;101253.06099999999;;;7.2;91.0
73422;BME280;61637;47.760;-122.022;2023-12-28T05:06:01;101253.06099999999;;;7.1;91.0
73422;BME280;61637;47.760;-122.022;2023-12-28T05:08:01;101253.06099999999;;;7.0;92.0
73422;BME280;61637;47.760;-122.022;2023-12-28T05:10:00;101253.06099999999;;;6.9;92.0
73422;BME280;61637;47.760;-122.022;2023-12-28T05:12:00;101253.06099999999;;;6.9;92.0
73422;BME280;61637;47.760;-122.022;2023-12-28T05:14:01;101253.06099999999;;;6.8;93.0
73422;BME280;61637;47.760;-122.022;2023-12-28T05:16:01;101253.06099999999;;;6.7;93.0
73422;BME280;61637;47.760;-122.022;2023-12-28T05:18:00;101253.06099999999;;;6.7;93.0
73422;BME280;61637;47.760;-122.022;2023-12-28T05:20:00;101253.06099999999;;;6.7;91.0
73422;BME280;61637;47.760;-122.022;2023-12-28T05:22:00;101253.06099999999;;;6.8;92.0
73422;BME280;61637;47.760;-122.022;2023-12-28T05:24:01;101253.06099999999;;;6.8;92.0
73422;BME280;61637;47.760;-122.022;2023-12-28T05:26:01;101253.06099999999;;;6.8;91.0
73422;BME280;61637;47.760;-122.022;2023-12-28T05:28:01;101253.06099999999;;;6.9;92.0
73422;BME280;61637;47.760;-122.022;2023-12-28T05:30:00;101253.06099999999;;;6.9;88.0
73422;BME280;61637;47.760;-122.022;2023-12-28T05:32:00;101253.06099999999;;;7.1;88.0
73422;BME280;61637;47.760;-122.022;2023-12-28T05:34:00;101253.06099999999;;;7.2;88.0
73422;BME280;61637;47.760;-122.022;2023-12-28T05:36:01;101253.06099999999;;;7.2;90.0
73422;BME280;61637;47.760;-122.022;2023-12-28T05:38:00;101253.06099999999;;;7.2;90.0
73422;BME280;61637;47.760;-122.022;2023-12-28T05:40:01;101253.06099999999;;;7.2;90.0
73422;BME280;61637;47.760;-122.022;2023-12-28T05:42:01;101253.06099999999;;;7.2;89.0
73422;BME280;61637;47.760;-122.022;2023-12-28T05:44:00;101253.06099999999;;;7.1;90.0
73422;BME280;61637;47.760;-122.022;2023-12-28T05:46:00;101253.06099999999;;;7.1;88.0
73422;BME280;61637;47.760;-122.022;2023-12-28T05:48:01;101253.06099999999;;;7.1;88.0
73422;BME280;61637;47.760;-122.022;2023-12-28T05:50:01;101253.06099999999;;;7.3;86.0
73422;BME280;61637;47.760;-122.022;2023-12-28T05:52:01;101253.06099999999;;;7.3;88.0
73422;BME280;61637;47.760;-122.022;2023-12-28T05:54:00;101253.06099999999;;;7.3;86.0
73422;BME280;61637;47.760;-122.022;2023-12-28T05:56:00;101253.06099999999;;;7.4;84.0
73422;BME280;61637;47.760;-122.022;2023-12-28T05:58:00;101253.06099999999;;;7.4;86.0
73422;BME280;61637;47.760;-122.022;2023-12-28T06:00:01;101253.06099999999;;;7.5;85.0
73422;BME280;61637;47.760;-122.022;2023-12-28T06:02:00;101253.06099999999;;;7.6;86.0
73422;BME280;61637;47.760;-122.022;2023-12-28T06:04:01;101253.06099999999;;;7.6;86.0
73422;BME280;61637;47.760;-122.022;2023-12-28T06:06:00;101253.06099999999;;;7.5;85.0
73422;BME280;61637;47.760;-122.022;2023-12-28T06:08:00;101253.06099999999;;;7.5;88.0
73422;BME280;61637;47.760;-122.022;2023-12-28T06:10:00;101253.06099999999;;;7.4;87.0
73422;BME280;61637;47.760;-122.022;2023-12-28T06:12:01;101253.06099999999;;;7.3;87.0
73422;BME280;61637;47.760;-122.022;2023-12-28T06:14:00;101253.06099999999;;;7.3;89.0
73422;BME280;61637;47.760;-122.022;2023-12-28T06:16:01;101253.06099999999;;;7.3;86.0
73422;BME280;61637;47.760;-122.022;2023-12-28T06:18:00;101253.06099999999;;;7.3;87.0
73422;BME280;61637;47.760;-122.022;2023-12-28T06:20:01;101591.7;;;7.3;88.0
73422;BME280;61637;47.760;-122.022;2023-12-28T06:22:00;101591.7;;;7.4;84.0
73422;BME280;61637;47.760;-122.022;2023-12-28T06:24:01;101591.7;;;7.4;87.0
73422;BME280;61637;47.760;-122.022;2023-12-28T06:26:04;101591.7;;;7.4;85.0
73422;BME280;61637;47.760;-122.022;2023-12-28T06:28:01;101591.7;;;7.4;85.0
73422;BME280;61637;47.760;-122.022;2023-12-28T06:30:00;101591.7;;;7.6;85.0
73422;BME280;61637;47.760;-122.022;2023-12-28T06:32:00;101591.7;;;7.6;85.0
73422;BME280;61637;47.760;-122.022;2023-12-28T06:34:01;101591.7;;;7.7;82.0
73422;BME280;61637;47.760;-122.022;2023-12-28T06:36:07;101591.7;;;7.8;82.0
73422;BME280;61637;47.760;-122.022;2023-12-28T06:38:00;101591.7;;;7.8;83.0
73422;BME280;61637;47.760;-122.022;2023-12-28T06:40:01;101591.7;;;7.9;82.0
73422;BME280;61637;47.760;-122.022;2023-12-28T06:42:01;101591.7;;;7.9;83.0
73422;BME280;61637;47.760;-122.022;2023-12-28T06:44:00;101591.7;;;7.8;84.0
73422;BME280;61637;47.760;-122.022;2023-12-28T06:46:00;101591.7;;;7.8;81.0
73422;BME280;61637;47.760;-122.022;2023-12-28T06:48:01;101591.7;;;7.8;81.0
73422;BME280;61637;47.760;-122.022;2023-12-28T06:50:00;101591.7;;;7.9;81.0
73422;BME280;61637;47.760;-122.022;2023-12-28T06:52:01;101591.7;;;8.0;82.0
73422;BME280;61637;47.760;-122.022;2023-12-28T06:54:00;101591.7;;;8.0;81.0
73422;BME280;61637;47.760;-122.022;2023-12-28T06:56:00;101591.7;;;7.9;79.0
73422;BME280;61637;47.760;-122.022;2023-12-28T06:58:01;101591.7;;;8.1;82.0
73422;BME280;61637;47.760;-122.022;2023-12-28T07:00:01;101591.7;;;8.1;81.0
73422;BME280;61637;47.760;-122.022;2023-12-28T07:02:01;101591.7;;;8.1;82.0
73422;BME280;61637;47.760;-122.022;2023-12-28T07:04:01;101591.7;;;8.1;82.0
73422;BME280;61637;47.760;-122.022;2023-12-28T07:06:01;101591.7;;;8.1;82.0
73422;BME280;61637;47.760;-122.022;2023-12-28T07:08:01;101591.7;;;8.1;82.0
73422;BME280;61637;47.760;-122.022;2023-12-28T07:10:01;101591.7;;;8.1;81.0
73422;BME280;61637;47.760;-122.022;2023-12-28T07:12:02;101591.7;;;8.1;85.0
73422;BME280;61637;47.760;-122.022;2023-12-28T07:14:01;101591.7;;;8.0;85.0
73422;BME280;61637;47.760;-122.022;2023-12-28T07:16:01;101591.7;;;7.9;85.0
73422;BME280;61637;47.760;-122.022;2023-12-28T07:18:00;101591.7;;;7.9;84.0
73422;BME280;61637;47.760;-122.022;2023-12-28T07:20:01;101591.7;;;7.8;86.0
73422;BME280;61637;47.760;-122.022;2023-12-28T07:22:01;101591.7;;;7.8;84.0
73422;BME280;61637;47.760;-122.022;2023-12-28T07:24:01;101591.7;;;7.9;82.0
73422;BME280;61637;47.760;-122.022;2023-12-28T07:26:01;101591.7;;;8.0;83.0
73422;BME280;61637;47.760;-122.022;2023-12-28T07:28:01;101591.7;;;8.1;85.0
73422;BME280;61637;47.760;-122.022;2023-12-28T07:30:01;101591.7;;;8.1;85.0
73422;BME280;61637;47.760;-122.022;2023-12-28T07:32:01;101591.7;;;8.1;85.0
73422;BME280;61637;47.760;-122.022;2023-12-28T07:34:00;101591.7;;;8.1;84.0
73422;BME280;61637;47.760;-122.022;2023-12-28T07:36:01;101591.7;;;8.1;85.0
73422;BME280;61637;47.760;-122.022;2023-12-28T07:38:01;101591.7;;;8.0;86.0
73422;BME280;61637;47.760;-122.022;2023-12-28T07:40:01;101591.7;;;7.9;86.0
73422;BME280;61637;47.760;-122.022;2023-12-28T07:42:00;101591.7;;;7.9;86.0
73422;BME280;61637;47.760;-122.022;2023-12-28T07:44:00;101591.7;;;7.8;85.0
73422;BME280;61637;47.760;-122.022;2023-12-28T07:46:00;101591.7;;;7.8;86.0
73422;BME280;61637;47.760;-122.022;2023-12-28T07:48:01;101591.7;;;7.8;86.0
73422;BME280;61637;47.760;-122.022;2023-12-28T07:50:01;101591.7;;;7.8;86.0
73422;BME280;61637;47.760;-122.022;2023-12-28T07:52:01;101591.7;;;7.8;86.0
73422;BME280;61637;47.760;-122.022;2023-12-28T07:54:00;101591.7;;;7.8;85.0
73422;BME280;61637;47.760;-122.022;2023-12-28T07:56:01;101591.7;;;7.8;85.0
73422;BME280;61637;47.760;-122.022;2023-12-28T07:58:00;101591.7;;;7.8;85.0
73422;BME280;61637;47.760;-122.022;2023-12-28T08:00:01;101591.7;;;7.8;87.0
73422;BME280;61637;47.760;-122.022;2023-12-28T08:02:01;101591.7;;;7.8;84.0
73422;BME280;61637;47.760;-122.022;2023-12-28T08:04:01;101591.7;;;7.8;84.0
73422;BME280;61637;47.760;-122.022;2023-12-28T08:06:01;101591.7;;;7.9;83.0
73422;BME280;61637;47.760;-122.022;2023-12-28T08:08:00;101591.7;;;8.1;83.0
73422;BME280;61637;47.760;-122.022;2023-12-28T08:10:01;101591.7;;;8.1;84.0
73422;BME280;61637;47.760;-122.022;2023-12-28T08:12:01;101591.7;;;8.1;84.0
73422;BME280;61637;47.760;-122.022;2023-12-28T08:14:00;101591.7;;;8.0;84.0
73422;BME280;61637;47.760;-122.022;2023-12-28T08:16:01;101591.7;;;8.0;83.0
73422;BME280;61637;47.760;-122.022;2023-12-28T08:18:01;101591.7;;;8.0;84.0
73422;BME280;61637;47.760;-122.022;2023-12-28T08:20:01;101591.7;;;8.2;81.0
73422;BME280;61637;47.760;-122.022;2023-12-28T08:22:01;101591.7;;;8.3;81.0
73422;BME280;61637;47.760;-122.022;2023-12-28T08:24:01;101591.7;;;8.3;83.0
73422;BME280;61637;47.760;-122.022;2023-12-28T08:26:01;101591.7;;;8.3;81.0
73422;BME280;61637;47.760;-122.022;2023-12-28T08:28:01;101591.7;;;8.3;82.0
73422;BME280;61637;47.760;-122.022;2023-12-28T08:30:01;101591.7;;;8.3;82.0
73422;BME280;61637;47.760;-122.022;2023-12-28T08:32:01;101591.7;;;8.3;81.0
73422;BME280;61637;47.760;-122.022;2023-12-28T08:34:01;101591.7;;;8.3;82.0
73422;BME280;61637;47.760;-122.022;2023-12-28T08:36:03;101591.7;;;8.2;83.0
73422;BME280;61637;47.760;-122.022;2023-12-28T08:38:01;101591.7;;;8.2;83.0
73422;BME280;61637;47.760;-122.022;2023-12-28T08:40:01;101591.7;;;8.1;82.0
73422;BME280;61637;47.760;-122.022;2023-12-28T08:42:01;101591.7;;;8.1;83.0
73422;BME280;61637;47.760;-122.022;2023-12-28T08:44:01;101591.7;;;8.1;83.0
73422;BME280;61637;47.760;-122.022;2023-12-28T08:46:00;101591.7;;;8.1;82.0
73422;BME280;61637;47.760;-122.022;2023-12-28T08:48:01;101591.7;;;8.1;83.0
73422;BME280;61637;47.760;-122.022;2023-12-28T08:50:00;101591.7;;;8.0;83.0
73422;BME280;61637;47.760;-122.022;2023-12-28T08:52:01;101591.7;;;8.0;82.0
73422;BME280;61637;47.760;-122.022;2023-12-28T08:54:01;101591.7;;;8.0;82.0
73422;BME280;61637;47.760;-122.022;2023-12-28T08:56:01;101591.7;;;8.0;81.0
73422;BME280;61637;47.760;-122.022;2023-12-28T08:58:00;101591.7;;;8.1;83.0
73422;BME280;61637;47.760;-122.022;2023-12-28T09:00:01;101591.7;;;8.0;83.0
73422;BME280;61637;47.760;-122.022;2023-12-28T09:02:00;101591.7;;;8.0;83.0
73422;BME280;61637;47.760;-122.022;2023-12-28T09:04:00;101591.7;;;8.1;80.0
73422;BME280;61637;47.760;-122.022;2023-12-28T09:06:01;101591.7;;;8.2;81.0
73422;BME280;61637;47.760;-122.022;2023-12-28T09:08:01;101591.7;;;8.3;81.0
73422;BME280;61637;47.760;-122.022;2023-12-28T09:10:01;101591.7;;;8.3;81.0
73422;BME280;61637;47.760;-122.022;2023-12-28T09:12:01;101591.7;;;8.3;83.0
73422;BME280;61637;47.760;-122.022;2023-12-28T09:14:00;101591.7;;;8.3;83.0
73422;BME280;61637;47.760;-122.022;2023-12-28T09:16:00;101591.7;;;8.3;84.0
73422;BME280;61637;47.760;-122.022;2023-12-28T09:18:01;101591.7;;;8.3;85.0
73422;BME280;61637;47.760;-122.022;2023-12-28T09:20:00;101930.339;;;8.3;86.0
73422;BME280;61637;47.760;-122.022;2023-12-28T09:22:01;101930.339;;;8.2;87.0
73422;BME280;61637;47.760;-122.022;2023-12-28T09:24:01;101930.339;;;8.2;87.0
73422;BME280;61637;47.760;-122.022;2023-12-28T09:26:01;101930.339;;;8.1;89.0
73422;BME280;61637;47.760;-122.022;2023-12-28T09:28:01;101930.339;;;8.0;89.0
73422;BME280;61637;47.760;-122.022;2023-12-28T09:30:01;101930.339;;;7.9;90.0
73422;BME280;61637;47.760;-122.022;2023-12-28T09:32:01;101930.339;;;7.8;90.0
73422;BME280;61637;47.760;-122.022;2023-12-28T09:34:00;101930.339;;;7.7;91.0
73422;BME280;61637;47.760;-122.022;2023-12-28T09:36:02;101930.339;;;7.7;91.0
73422;BME280;61637;47.760;-122.022;2023-12-28T09:38:01;101930.339;;;7.5;92.0
73422;BME280;61637;47.760;-122.022;2023-12-28T09:40:01;101930.339;;;7.4;92.0
73422;BME280;61637;47.760;-122.022;2023-12-28T09:42:03;101930.339;;;7.4;92.0